Alsbach, Germany

7:10 PM CEST on July 30, 2016 (GMT +0200)
Mörikeweg | | Change Station

Elev 1046 ft 48.73 °N, 9.39 °E | Updated 5 minutes ago

Clear
Clear
82.8 °F
Feels Like 84 °F
N
1.9
Wind Variable Wind from ENE
Gusts 4.3 mph

Today
High -- | Low -- °F
--% Chance of Precip.
Yesterday
High -- | Low -- °F
Precip. -- in
Pressure 29.92 in
Visibility -9999.0 miles
Clouds
Heat Index 84 °F
Dew Point 63 °F
Humidity 50%
Rainfall 0.00 in
Snow Depth Not available.
5:53 AM 9:02 PM
Waning Crescent, 12% visible
METAR EDDS 301650Z 34008KT 270V040 CAVOK 28/13 Q1013 NOSIG
Pressure 29.92 in
Visibility -9999.0 miles
Clouds
Heat Index 84 °F
Dew Point 63 °F
Humidity 50%
Rainfall 0.00 in
Snow Depth Not available.
5:53 AM 9:02 PM
Waning Crescent, 12% visible
METAR EDDS 301650Z 34008KT 270V040 CAVOK 28/13 Q1013 NOSIG

10-Day Weather Forecast

×

Almanac

Astronomy

Jul. 30, 2016 Rise Set
Actual Time
Civil Twilight
Nautical Twilight
Astronomical Twilight
Moon
Length of Visible Light
Length of Day
Tomorrow will be .
, % of the Moon is Illuminated

Today's Extremes

Country Highs Country Lows

Community

WunderPhotos

Upload Photos

1,928,598 photos uploaded!

WunderBlog® & News

Nearby

Air Quality

  Air Quality AQ Index Pollutant
Not available.

Snow Depth

Station Depth Elevation

Earthquake Activity

City Distance Mag. Time & Date
Minimum magnitude displayed is 2.5.

Coastal Water Temperatures

Place Temperature

Stations

Nearby Weather Stations

Station Location Temp. Windchill Dew Point Humidity Wind Precip. Elev Updated Type